sensor_id;sensor_type;location;lat;lon;timestamp;pressure;altitude;pressure_sealevel;temperature;humidity
43480;BME280;29067;35.492;-97.520;2023-04-19T00:00:09;96297.70;;;16.43;71.43
43480;BME280;29067;35.492;-97.520;2023-04-19T00:02:37;96302.05;;;17.10;69.73
43480;BME280;29067;35.492;-97.520;2023-04-19T00:05:05;96302.47;;;17.28;69.44
43480;BME280;29067;35.492;-97.520;2023-04-19T00:07:33;96295.12;;;17.51;67.49
43480;BME280;29067;35.492;-97.520;2023-04-19T00:10:01;96301.55;;;16.86;69.41
43480;BME280;29067;35.492;-97.520;2023-04-19T00:12:30;96288.24;;;17.40;67.16
43480;BME280;29067;35.492;-97.520;2023-04-19T00:14:57;96301.49;;;16.57;70.17
43480;BME280;29067;35.492;-97.520;2023-04-19T00:17:26;96292.50;;;17.66;68.93
43480;BME280;29067;35.492;-97.520;2023-04-19T00:19:54;96295.50;;;17.20;70.00
43480;BME280;29067;35.492;-97.520;2023-04-19T00:22:23;96299.14;;;16.11;73.75
43480;BME280;29067;35.492;-97.520;2023-04-19T00:24:52;96295.37;;;16.63;73.80
43480;BME280;29067;35.492;-97.520;2023-04-19T00:27:19;96292.37;;;16.76;72.55
43480;BME280;29067;35.492;-97.520;2023-04-19T00:29:52;96290.84;;;16.56;73.25
43480;BME280;29067;35.492;-97.520;2023-04-19T00:32:20;96294.08;;;16.14;74.18
43480;BME280;29067;35.492;-97.520;2023-04-19T00:34:54;96293.86;;;16.56;73.36
43480;BME280;29067;35.492;-97.520;2023-04-19T00:37:23;96292.43;;;17.22;72.36
43480;BME280;29067;35.492;-97.520;2023-04-19T00:39:51;96287.52;;;15.96;75.14
43480;BME280;29067;35.492;-97.520;2023-04-19T00:42:19;96292.83;;;16.82;73.23
43480;BME280;29067;35.492;-97.520;2023-04-19T00:44:48;96300.88;;;15.23;79.13
43480;BME280;29067;35.492;-97.520;2023-04-19T00:47:15;96296.44;;;15.86;76.00
43480;BME280;29067;35.492;-97.520;2023-04-19T00:49:44;96299.66;;;16.15;78.04
43480;BME280;29067;35.492;-97.520;2023-04-19T00:52:12;96291.54;;;16.74;76.57
43480;BME280;29067;35.492;-97.520;2023-04-19T00:54:42;96301.12;;;16.49;77.25
43480;BME280;29067;35.492;-97.520;2023-04-19T00:57:10;96300.83;;;16.36;74.44
43480;BME280;29067;35.492;-97.520;2023-04-19T00:59:38;96306.35;;;16.26;75.60
43480;BME280;29067;35.492;-97.520;2023-04-19T01:02:07;96305.74;;;17.60;70.39
43480;BME280;29067;35.492;-97.520;2023-04-19T01:04:36;96311.55;;;16.83;74.05
43480;BME280;29067;35.492;-97.520;2023-04-19T01:07:04;96306.48;;;16.30;75.30
43480;BME280;29067;35.492;-97.520;2023-04-19T01:09:33;96297.66;;;16.59;73.12
43480;BME280;29067;35.492;-97.520;2023-04-19T01:12:01;96302.72;;;16.55;74.13
43480;BME280;29067;35.492;-97.520;2023-04-19T01:14:29;96297.41;;;16.46;73.59
43480;BME280;29067;35.492;-97.520;2023-04-19T01:16:57;96299.61;;;15.82;75.54
43480;BME280;29067;35.492;-97.520;2023-04-19T01:19:24;96298.68;;;16.86;72.16
43480;BME280;29067;35.492;-97.520;2023-04-19T01:21:52;96306.94;;;15.87;74.76
43480;BME280;29067;35.492;-97.520;2023-04-19T01:24:19;96305.67;;;15.70;76.25
43480;BME280;29067;35.492;-97.520;2023-04-19T01:26:47;96300.00;;;16.03;73.91
43480;BME280;29067;35.492;-97.520;2023-04-19T01:29:15;96303.97;;;15.49;74.39
43480;BME280;29067;35.492;-97.520;2023-04-19T01:31:43;96301.69;;;15.40;78.77
43480;BME280;29067;35.492;-97.520;2023-04-19T01:34:12;96309.21;;;15.11;76.67
43480;BME280;29067;35.492;-97.520;2023-04-19T01:36:39;96308.17;;;15.13;75.42
43480;BME280;29067;35.492;-97.520;2023-04-19T01:39:08;96310.17;;;15.80;76.64
43480;BME280;29067;35.492;-97.520;2023-04-19T01:41:38;96308.30;;;15.19;76.12
43480;BME280;29067;35.492;-97.520;2023-04-19T01:44:06;96298.06;;;16.09;75.57
43480;BME280;29067;35.492;-97.520;2023-04-19T01:46:34;96305.88;;;15.34;76.45
43480;BME280;29067;35.492;-97.520;2023-04-19T01:49:02;96293.23;;;14.88;79.63
43480;BME280;29067;35.492;-97.520;2023-04-19T01:51:30;96301.86;;;15.40;77.66
43480;BME280;29067;35.492;-97.520;2023-04-19T01:53:58;96301.63;;;15.38;75.90
43480;BME280;29067;35.492;-97.520;2023-04-19T01:56:25;96302.02;;;15.93;73.94
43480;BME280;29067;35.492;-97.520;2023-04-19T01:58:53;96305.75;;;16.00;72.86
43480;BME280;29067;35.492;-97.520;2023-04-19T02:01:23;96300.70;;;15.95;72.91
43480;BME280;29067;35.492;-97.520;2023-04-19T02:03:51;96304.27;;;14.65;76.91
43480;BME280;29067;35.492;-97.520;2023-04-19T02:06:19;96311.21;;;15.47;75.89
43480;BME280;29067;35.492;-97.520;2023-04-19T02:08:47;96308.95;;;16.01;73.16
43480;BME280;29067;35.492;-97.520;2023-04-19T02:11:14;96300.32;;;15.85;72.77
43480;BME280;29067;35.492;-97.520;2023-04-19T02:13:42;96304.01;;;15.74;73.25
43480;BME280;29067;35.492;-97.520;2023-04-19T02:16:11;96300.07;;;15.17;75.27
43480;BME280;29067;35.492;-97.520;2023-04-19T02:18:39;96321.93;;;15.72;73.14
43480;BME280;29067;35.492;-97.520;2023-04-19T02:21:08;96310.55;;;14.98;76.44
43480;BME280;29067;35.492;-97.520;2023-04-19T02:23:41;96316.56;;;14.95;75.57
43480;BME280;29067;35.492;-97.520;2023-04-19T02:26:09;96322.85;;;15.70;74.07
43480;BME280;29067;35.492;-97.520;2023-04-19T02:28:37;96318.66;;;15.06;75.69
43480;BME280;29067;35.492;-97.520;2023-04-19T02:31:06;96319.84;;;15.62;73.97
43480;BME280;29067;35.492;-97.520;2023-04-19T02:33:34;96325.82;;;14.89;74.27
43480;BME280;29067;35.492;-97.520;2023-04-19T02:36:02;96335.47;;;14.30;77.83
43480;BME280;29067;35.492;-97.520;2023-04-19T02:38:30;96332.57;;;15.29;74.97
43480;BME280;29067;35.492;-97.520;2023-04-19T02:40:59;96341.91;;;15.49;73.93
43480;BME280;29067;35.492;-97.520;2023-04-19T02:43:27;96344.69;;;14.90;74.85
43480;BME280;29067;35.492;-97.520;2023-04-19T02:45:55;96352.66;;;14.89;76.82
43480;BME280;29067;35.492;-97.520;2023-04-19T02:48:28;96369.61;;;15.94;72.27
43480;BME280;29067;35.492;-97.520;2023-04-19T02:50:56;96378.40;;;15.29;73.85
43480;BME280;29067;35.492;-97.520;2023-04-19T02:53:25;96369.50;;;15.59;73.11
43480;BME280;29067;35.492;-97.520;2023-04-19T02:55:52;96371.71;;;16.96;69.09
43480;BME280;29067;35.492;-97.520;2023-04-19T02:58:20;96376.25;;;15.77;70.39
43480;BME280;29067;35.492;-97.520;2023-04-19T03:00:48;96381.82;;;15.71;72.70
43480;BME280;29067;35.492;-97.520;2023-04-19T03:03:16;96382.58;;;14.44;79.79
43480;BME280;29067;35.492;-97.520;2023-04-19T03:05:44;96371.60;;;15.77;74.18
43480;BME280;29067;35.492;-97.520;2023-04-19T03:08:12;96371.15;;;15.37;73.95
43480;BME280;29067;35.492;-97.520;2023-04-19T03:10:40;96378.25;;;14.72;75.63
43480;BME280;29067;35.492;-97.520;2023-04-19T03:13:08;96383.76;;;16.03;72.22
43480;BME280;29067;35.492;-97.520;2023-04-19T03:15:35;96375.09;;;15.25;74.36
43480;BME280;29067;35.492;-97.520;2023-04-19T03:18:03;96375.43;;;15.07;74.95
43480;BME280;29067;35.492;-97.520;2023-04-19T03:20:31;96373.39;;;14.96;77.74
43480;BME280;29067;35.492;-97.520;2023-04-19T03:22:59;96384.40;;;16.48;70.45
43480;BME280;29067;35.492;-97.520;2023-04-19T03:25:27;96393.64;;;15.38;77.36
43480;BME280;29067;35.492;-97.520;2023-04-19T03:27:56;96388.57;;;16.04;72.67
43480;BME280;29067;35.492;-97.520;2023-04-19T03:30:24;96385.38;;;15.20;75.45
43480;BME280;29067;35.492;-97.520;2023-04-19T03:32:52;96382.97;;;14.35;76.76
43480;BME280;29067;35.492;-97.520;2023-04-19T03:35:19;96389.27;;;16.14;72.84
43480;BME280;29067;35.492;-97.520;2023-04-19T03:37:47;96386.12;;;16.23;72.37
43480;BME280;29067;35.492;-97.520;2023-04-19T03:40:15;96394.43;;;14.99;77.01
43480;BME280;29067;35.492;-97.520;2023-04-19T03:42:43;96395.99;;;14.88;77.47
43480;BME280;29067;35.492;-97.520;2023-04-19T03:45:12;96390.86;;;15.64;73.46
43480;BME280;29067;35.492;-97.520;2023-04-19T03:47:40;96394.99;;;15.42;73.70
43480;BME280;29067;35.492;-97.520;2023-04-19T03:50:09;96389.36;;;15.52;72.71
43480;BME280;29067;35.492;-97.520;2023-04-19T03:52:37;96387.57;;;15.49;73.86
43480;BME280;29067;35.492;-97.520;2023-04-19T03:55:05;96387.56;;;14.76;76.50
43480;BME280;29067;35.492;-97.520;2023-04-19T03:57:33;96396.81;;;15.54;76.17
43480;BME280;29067;35.492;-97.520;2023-04-19T04:00:02;96399.48;;;15.86;73.96
43480;BME280;29067;35.492;-97.520;2023-04-19T04:02:30;96401.96;;;16.56;71.12
43480;BME280;29067;35.492;-97.520;2023-04-19T04:04:58;96400.09;;;15.05;75.19
43480;BME280;29067;35.492;-97.520;2023-04-19T04:07:26;96391.69;;;16.09;71.47
43480;BME280;29067;35.492;-97.520;2023-04-19T04:09:54;96394.13;;;16.06;71.39
43480;BME280;29067;35.492;-97.520;2023-04-19T04:12:22;96378.58;;;15.55;74.49
43480;BME280;29067;35.492;-97.520;2023-04-19T04:14:50;96384.62;;;15.71;74.51
43480;BME280;29067;35.492;-97.520;2023-04-19T04:17:18;96384.40;;;15.85;75.59
43480;BME280;29067;35.492;-97.520;2023-04-19T04:19:46;96373.72;;;15.48;77.17
43480;BME280;29067;35.492;-97.520;2023-04-19T04:22:15;96375.39;;;16.01;75.99
43480;BME280;29067;35.492;-97.520;2023-04-19T04:24:43;96378.41;;;15.19;76.90
43480;BME280;29067;35.492;-97.520;2023-04-19T04:27:10;96371.73;;;15.10;78.72
43480;BME280;29067;35.492;-97.520;2023-04-19T04:29:39;96376.83;;;15.18;79.54
43480;BME280;29067;35.492;-97.520;2023-04-19T04:32:08;96377.89;;;14.97;79.78
43480;BME280;29067;35.492;-97.520;2023-04-19T04:34:35;96374.70;;;15.52;78.59
43480;BME280;29067;35.492;-97.520;2023-04-19T04:37:03;96382.20;;;15.62;75.84
43480;BME280;29067;35.492;-97.520;2023-04-19T04:39:32;96373.31;;;15.72;76.51
43480;BME280;29067;35.492;-97.520;2023-04-19T04:41:59;96362.44;;;15.28;76.95
43480;BME280;29067;35.492;-97.520;2023-04-19T04:44:28;96369.07;;;15.53;76.63
43480;BME280;29067;35.492;-97.520;2023-04-19T04:46:56;96364.50;;;14.87;78.70
43480;BME280;29067;35.492;-97.520;2023-04-19T04:49:24;96363.88;;;15.15;79.76
43480;BME280;29067;35.492;-97.520;2023-04-19T04:51:52;96369.88;;;14.90;80.80
43480;BME280;29067;35.492;-97.520;2023-04-19T04:54:20;96356.91;;;15.76;75.41
43480;BME280;29067;35.492;-97.520;2023-04-19T04:56:48;96358.06;;;15.63;78.18
43480;BME280;29067;35.492;-97.520;2023-04-19T04:59:16;96349.33;;;14.95;80.18
43480;BME280;29067;35.492;-97.520;2023-04-19T05:01:44;96340.25;;;16.19;74.40
43480;BME280;29067;35.492;-97.520;2023-04-19T05:04:12;96339.54;;;14.95;78.34
43480;BME280;29067;35.492;-97.520;2023-04-19T05:06:40;96341.91;;;15.58;77.75
43480;BME280;29067;35.492;-97.520;2023-04-19T05:09:07;96320.35;;;15.53;78.82
43480;BME280;29067;35.492;-97.520;2023-04-19T05:11:35;96324.07;;;14.00;84.38
43480;BME280;29067;35.492;-97.520;2023-04-19T05:14:04;96324.99;;;14.91;85.02
43480;BME280;29067;35.492;-97.520;2023-04-19T05:16:33;96325.86;;;15.65;78.54
43480;BME280;29067;35.492;-97.520;2023-04-19T05:19:01;96329.84;;;15.06;79.87
43480;BME280;29067;35.492;-97.520;2023-04-19T05:21:29;96326.91;;;15.47;79.38
43480;BME280;29067;35.492;-97.520;2023-04-19T05:23:57;96331.34;;;15.13;79.10
43480;BME280;29067;35.492;-97.520;2023-04-19T05:26:24;96322.42;;;14.61;80.48
43480;BME280;29067;35.492;-97.520;2023-04-19T05:28:52;96331.29;;;14.69;80.89
43480;BME280;29067;35.492;-97.520;2023-04-19T05:31:20;96330.02;;;14.34;81.80
43480;BME280;29067;35.492;-97.520;2023-04-19T05:33:48;96341.48;;;14.72;80.25
43480;BME280;29067;35.492;-97.520;2023-04-19T05:36:16;96343.94;;;14.49;82.45
43480;BME280;29067;35.492;-97.520;2023-04-19T05:38:44;96343.41;;;14.24;84.06
43480;BME280;29067;35.492;-97.520;2023-04-19T05:41:12;96340.82;;;13.83;83.71
43480;BME280;29067;35.492;-97.520;2023-04-19T05:43:40;96333.78;;;14.32;83.73
43480;BME280;29067;35.492;-97.520;2023-04-19T05:46:08;96330.10;;;14.49;85.75
43480;BME280;29067;35.492;-97.520;2023-04-19T05:48:36;96329.30;;;14.72;82.27
43480;BME280;29067;35.492;-97.520;2023-04-19T05:51:04;96328.47;;;14.66;79.82
43480;BME280;29067;35.492;-97.520;2023-04-19T05:53:32;96337.43;;;14.84;79.55
43480;BME280;29067;35.492;-97.520;2023-04-19T05:56:05;96333.82;;;14.36;81.21
43480;BME280;29067;35.492;-97.520;2023-04-19T05:58:33;96329.95;;;14.56;81.70
43480;BME280;29067;35.492;-97.520;2023-04-19T06:01:01;96334.58;;;14.08;81.54
43480;BME280;29067;35.492;-97.520;2023-04-19T06:03:29;96324.58;;;15.08;77.85
43480;BME280;29067;35.492;-97.520;2023-04-19T06:05:56;96329.11;;;14.51;79.57
43480;BME280;29067;35.492;-97.520;2023-04-19T06:08:24;96334.58;;;13.89;82.05
43480;BME280;29067;35.492;-97.520;2023-04-19T06:10:52;96327.32;;;14.29;82.37
43480;BME280;29067;35.492;-97.520;2023-04-19T06:13:20;96316.40;;;14.38;81.07
43480;BME280;29067;35.492;-97.520;2023-04-19T06:15:48;96314.38;;;14.25;80.50
43480;BME280;29067;35.492;-97.520;2023-04-19T06:18:16;96315.71;;;14.55;78.61
43480;BME280;29067;35.492;-97.520;2023-04-19T06:20:44;96313.62;;;15.35;77.72
43480;BME280;29067;35.492;-97.520;2023-04-19T06:23:12;96311.89;;;14.59;78.96
43480;BME280;29067;35.492;-97.520;2023-04-19T06:25:40;96309.72;;;15.32;77.16
43480;BME280;29067;35.492;-97.520;2023-04-19T06:28:08;96300.09;;;15.19;75.86
43480;BME280;29067;35.492;-97.520;2023-04-19T06:30:35;96304.87;;;15.19;76.07
43480;BME280;29067;35.492;-97.520;2023-04-19T06:33:03;96291.20;;;14.12;80.16
43480;BME280;29067;35.492;-97.520;2023-04-19T06:35:31;96299.40;;;14.48;79.60
43480;BME280;29067;35.492;-97.520;2023-04-19T06:37:59;96304.74;;;15.81;76.92
43480;BME280;29067;35.492;-97.520;2023-04-19T06:40:27;96283.10;;;14.32;82.98
43480;BME280;29067;35.492;-97.520;2023-04-19T06:42:55;96278.70;;;13.88;82.60
43480;BME280;29067;35.492;-97.520;2023-04-19T06:45:23;96288.19;;;13.88;84.18
43480;BME280;29067;35.492;-97.520;2023-04-19T06:47:52;96263.47;;;13.56;85.87
43480;BME280;29067;35.492;-97.520;2023-04-19T06:50:21;96267.71;;;13.38;87.32
43480;BME280;29067;35.492;-97.520;2023-04-19T06:52:48;96276.75;;;14.85;80.80
43480;BME280;29067;35.492;-97.520;2023-04-19T06:55:16;96278.80;;;14.13;81.51
43480;BME280;29067;35.492;-97.520;2023-04-19T06:57:44;96281.15;;;14.04;84.07
43480;BME280;29067;35.492;-97.520;2023-04-19T07:00:12;96268.69;;;14.07;83.19
43480;BME280;29067;35.492;-97.520;2023-04-19T07:02:41;96262.64;;;14.65;80.04
43480;BME280;29067;35.492;-97.520;2023-04-19T07:05:09;96269.90;;;14.67;80.75
43480;BME280;29067;35.492;-97.520;2023-04-19T07:07:37;96271.92;;;13.65;84.84
43480;BME280;29067;35.492;-97.520;2023-04-19T07:10:06;96278.49;;;12.88;89.06
43480;BME280;29067;35.492;-97.520;2023-04-19T07:12:35;96278.82;;;13.30;87.98
43480;BME280;29067;35.492;-97.520;2023-04-19T07:15:03;96272.70;;;14.51;81.94
43480;BME280;29067;35.492;-97.520;2023-04-19T07:17:33;96270.04;;;13.64;85.68
43480;BME280;29067;35.492;-97.520;2023-04-19T07:20:02;96289.99;;;13.25;92.05
43480;BME280;29067;35.492;-97.520;2023-04-19T07:22:31;96265.21;;;13.85;85.55
43480;BME280;29067;35.492;-97.520;2023-04-19T07:24:59;96271.55;;;13.18;92.75
43480;BME280;29067;35.492;-97.520;2023-04-19T07:27:27;96264.51;;;13.33;90.67
43480;BME280;29067;35.492;-97.520;2023-04-19T07:29:55;96278.87;;;13.68;90.98
43480;BME280;29067;35.492;-97.520;2023-04-19T07:32:24;96274.84;;;14.00;87.95
43480;BME280;29067;35.492;-97.520;2023-04-19T07:34:52;96273.00;;;13.90;85.54
43480;BME280;29067;35.492;-97.520;2023-04-19T07:37:20;96279.57;;;12.96;89.54
43480;BME280;29067;35.492;-97.520;2023-04-19T07:39:48;96278.43;;;13.99;84.92
43480;BME280;29067;35.492;-97.520;2023-04-19T07:42:16;96284.24;;;13.43;87.48
43480;BME280;29067;35.492;-97.520;2023-04-19T07:44:44;96292.91;;;13.54;87.18
43480;BME280;29067;35.492;-97.520;2023-04-19T07:47:12;96279.87;;;15.18;80.33
43480;BME280;29067;35.492;-97.520;2023-04-19T07:49:40;96288.92;;;13.88;87.20
43480;BME280;29067;35.492;-97.520;2023-04-19T07:52:08;96274.42;;;14.43;83.76
43480;BME280;29067;35.492;-97.520;2023-04-19T07:54:36;96268.92;;;14.49;81.05
43480;BME280;29067;35.492;-97.520;2023-04-19T07:57:04;96264.82;;;14.91;80.60
43480;BME280;29067;35.492;-97.520;2023-04-19T07:59:32;96252.24;;;14.63;79.94
43480;BME280;29067;35.492;-97.520;2023-04-19T08:02:00;96250.26;;;12.98;89.49
43480;BME280;29067;35.492;-97.520;2023-04-19T08:04:28;96241.38;;;14.01;85.12
43480;BME280;29067;35.492;-97.520;2023-04-19T08:06:56;96245.34;;;13.56;86.90
43480;BME280;29067;35.492;-97.520;2023-04-19T08:09:24;96242.45;;;14.10;89.01
43480;BME280;29067;35.492;-97.520;2023-04-19T08:11:51;96241.51;;;13.13;89.55
43480;BME280;29067;35.492;-97.520;2023-04-19T08:14:19;96244.35;;;13.49;89.90
43480;BME280;29067;35.492;-97.520;2023-04-19T08:16:47;96232.85;;;13.14;89.56
43480;BME280;29067;35.492;-97.520;2023-04-19T08:19:15;96232.80;;;12.77;91.38
43480;BME280;29067;35.492;-97.520;2023-04-19T08:21:43;96237.01;;;13.99;88.11
43480;BME280;29067;35.492;-97.520;2023-04-19T08:24:10;96238.77;;;14.36;87.81
43480;BME280;29067;35.492;-97.520;2023-04-19T08:26:38;96244.38;;;13.67;91.69
43480;BME280;29067;35.492;-97.520;2023-04-19T08:29:06;96245.41;;;13.70;86.26
43480;BME280;29067;35.492;-97.520;2023-04-19T08:31:34;96244.19;;;13.28;88.34
43480;BME280;29067;35.492;-97.520;2023-04-19T08:34:02;96245.02;;;12.46;91.69
43480;BME280;29067;35.492;-97.520;2023-04-19T08:36:30;96247.09;;;13.10;91.64
43480;BME280;29067;35.492;-97.520;2023-04-19T08:38:57;96249.96;;;13.15;89.17
43480;BME280;29067;35.492;-97.520;2023-04-19T08:41:31;96247.26;;;12.39;92.05
43480;BME280;29067;35.492;-97.520;2023-04-19T08:43:59;96249.63;;;13.73;88.11
43480;BME280;29067;35.492;-97.520;2023-04-19T08:46:30;96244.94;;;13.47;87.13
43480;BME280;29067;35.492;-97.520;2023-04-19T08:48:59;96246.66;;;13.86;84.98
43480;BME280;29067;35.492;-97.520;2023-04-19T08:51:29;96252.60;;;14.19;83.85
43480;BME280;29067;35.492;-97.520;2023-04-19T08:53:58;96247.01;;;13.94;84.21
43480;BME280;29067;35.492;-97.520;2023-04-19T08:56:27;96253.18;;;13.09;87.89
43480;BME280;29067;35.492;-97.520;2023-04-19T08:58:55;96256.79;;;12.84;92.70
43480;BME280;29067;35.492;-97.520;2023-04-19T09:01:23;96255.52;;;13.47;86.06
43480;BME280;29067;35.492;-97.520;2023-04-19T09:03:51;96255.58;;;13.18;88.05
43480;BME280;29067;35.492;-97.520;2023-04-19T09:06:18;96259.96;;;13.32;88.58
43480;BME280;29067;35.492;-97.520;2023-04-19T09:08:46;96254.12;;;13.33;88.09
43480;BME280;29067;35.492;-97.520;2023-04-19T09:11:14;96257.54;;;13.18;89.52
43480;BME280;29067;35.492;-97.520;2023-04-19T09:13:42;96248.93;;;13.43;88.12
43480;BME280;29067;35.492;-97.520;2023-04-19T09:16:23;96248.36;;;13.48;85.44
43480;BME280;29067;35.492;-97.520;2023-04-19T09:18:56;96257.66;;;13.69;89.05
43480;BME280;29067;35.492;-97.520;2023-04-19T09:21:28;96261.21;;;13.92;87.20
43480;BME280;29067;35.492;-97.520;2023-04-19T09:23:56;96259.14;;;13.77;83.71
43480;BME280;29067;35.492;-97.520;2023-04-19T09:26:25;96254.59;;;13.84;83.32
43480;BME280;29067;35.492;-97.520;2023-04-19T09:28:56;96261.32;;;12.69;89.32
43480;BME280;29067;35.492;-97.520;2023-04-19T09:31:26;96258.00;;;14.57;81.65
43480;BME280;29067;35.492;-97.520;2023-04-19T09:33:54;96254.78;;;13.03;84.63
43480;BME280;29067;35.492;-97.520;2023-04-19T09:36:31;96256.23;;;13.01;87.15
43480;BME280;29067;35.492;-97.520;2023-04-19T09:38:59;96256.51;;;14.05;84.00
43480;BME280;29067;35.492;-97.520;2023-04-19T09:41:27;96251.49;;;14.02;82.49
43480;BME280;29067;35.492;-97.520;2023-04-19T09:44:09;96258.14;;;13.31;87.13
43480;BME280;29067;35.492;-97.520;2023-04-19T09:46:37;96259.65;;;13.37;85.41
43480;BME280;29067;35.492;-97.520;2023-04-19T09:49:22;96263.33;;;13.70;83.71
43480;BME280;29067;35.492;-97.520;2023-04-19T09:51:52;96246.19;;;13.80;80.20
43480;BME280;29067;35.492;-97.520;2023-04-19T09:54:22;96269.68;;;13.89;82.14
43480;BME280;29067;35.492;-97.520;2023-04-19T09:56:51;96250.52;;;13.34;81.54
43480;BME280;29067;35.492;-97.520;2023-04-19T09:59:19;96267.69;;;13.74;80.43
43480;BME280;29067;35.492;-97.520;2023-04-19T10:01:52;96255.02;;;13.66;80.14
43480;BME280;29067;35.492;-97.520;2023-04-19T10:04:21;96249.45;;;13.75;80.03
43480;BME280;29067;35.492;-97.520;2023-04-19T10:06:50;96262.54;;;14.34;77.56
43480;BME280;29067;35.492;-97.520;2023-04-19T10:09:19;96268.02;;;14.35;76.97
43480;BME280;29067;35.492;-97.520;2023-04-19T10:11:48;96261.76;;;14.54;76.76
43480;BME280;29067;35.492;-97.520;2023-04-19T10:14:18;96264.91;;;13.44;80.46
43480;BME280;29067;35.492;-97.520;2023-04-19T10:16:48;96259.71;;;13.29;82.35
43480;BME280;29067;35.492;-97.520;2023-04-19T10:19:19;96273.50;;;12.62;85.49
43480;BME280;29067;35.492;-97.520;2023-04-19T10:21:48;96268.72;;;13.21;81.62
43480;BME280;29067;35.492;-97.520;2023-04-19T10:24:17;96266.84;;;14.26;79.17
43480;BME280;29067;35.492;-97.520;2023-04-19T10:27:15;96267.44;;;13.39;79.62
43480;BME280;29067;35.492;-97.520;2023-04-19T10:29:59;96277.42;;;13.28;81.70
43480;BME280;29067;35.492;-97.520;2023-04-19T10:32:30;96274.70;;;14.41;79.09
43480;BME280;29067;35.492;-97.520;2023-04-19T10:35:07;96267.95;;;12.96;81.42
43480;BME280;29067;35.492;-97.520;2023-04-19T10:37:39;96267.31;;;13.27;79.84
43480;BME280;29067;35.492;-97.520;2023-04-19T10:40:08;96281.20;;;13.07;82.11
43480;BME280;29067;35.492;-97.520;2023-04-19T10:43:44;96278.04;;;12.55;87.21
43480;BME280;29067;35.492;-97.520;2023-04-19T10:46:16;96275.53;;;13.66;83.26
43480;BME280;29067;35.492;-97.520;2023-04-19T10:49:03;96272.83;;;13.96;82.63
43480;BME280;29067;35.492;-97.520;2023-04-19T10:51:33;96273.23;;;12.75;87.77
43480;BME280;29067;35.492;-97.520;2023-04-19T10:54:03;96276.08;;;13.65;84.65
43480;BME280;29067;35.492;-97.520;2023-04-19T10:57:05;96277.83;;;14.17;81.54
43480;BME280;29067;35.492;-97.520;2023-04-19T10:59:33;96282.29;;;12.73;83.97
43480;BME280;29067;35.492;-97.520;2023-04-19T11:03:57;96271.97;;;12.88;82.85
43480;BME280;29067;35.492;-97.520;2023-04-19T11:06:26;96275.84;;;14.28;80.40
43480;BME280;29067;35.492;-97.520;2023-04-19T11:08:53;96274.05;;;13.30;82.32
43480;BME280;29067;35.492;-97.520;2023-04-19T11:11:21;96273.47;;;13.94;81.28
43480;BME280;29067;35.492;-97.520;2023-04-19T11:13:49;96275.69;;;14.78;78.51
43480;BME280;29067;35.492;-97.520;2023-04-19T11:16:18;96270.53;;;14.52;77.56
43480;BME280;29067;35.492;-97.520;2023-04-19T11:18:46;96283.86;;;14.39;76.51
43480;BME280;29067;35.492;-97.520;2023-04-19T11:21:14;96289.65;;;13.85;80.11
43480;BME280;29067;35.492;-97.520;2023-04-19T11:23:44;96270.50;;;14.46;80.76
43480;BME280;29067;35.492;-97.520;2023-04-19T11:26:12;96274.91;;;14.63;77.89
43480;BME280;29067;35.492;-97.520;2023-04-19T11:28:40;96280.36;;;14.59;75.28
43480;BME280;29067;35.492;-97.520;2023-04-19T11:31:07;96279.01;;;14.55;78.21
43480;BME280;29067;35.492;-97.520;2023-04-19T11:33:36;96281.89;;;14.62;78.61
43480;BME280;29067;35.492;-97.520;2023-04-19T11:36:10;96288.60;;;14.11;80.81
43480;BME280;29067;35.492;-97.520;2023-04-19T11:38:38;96281.15;;;13.99;79.84
43480;BME280;29067;35.492;-97.520;2023-04-19T11:41:06;96288.03;;;13.63;81.98
43480;BME280;29067;35.492;-97.520;2023-04-19T11:43:35;96286.41;;;13.46;83.95
43480;BME280;29067;35.492;-97.520;2023-04-19T11:46:05;96286.63;;;13.62;80.91
43480;BME280;29067;35.492;-97.520;2023-04-19T11:48:34;96293.41;;;14.49;79.03
43480;BME280;29067;35.492;-97.520;2023-04-19T11:51:03;96299.57;;;13.97;79.95
43480;BME280;29067;35.492;-97.520;2023-04-19T11:53:31;96303.41;;;13.94;82.41
43480;BME280;29067;35.492;-97.520;2023-04-19T11:56:04;96305.12;;;13.62;86.06
43480;BME280;29067;35.492;-97.520;2023-04-19T11:58:37;96299.52;;;14.08;82.07
43480;BME280;29067;35.492;-97.520;2023-04-19T12:01:07;96298.28;;;14.67;78.72
43480;BME280;29067;35.492;-97.520;2023-04-19T12:03:40;96300.93;;;15.17;76.82
43480;BME280;29067;35.492;-97.520;2023-04-19T12:06:11;96306.06;;;14.20;80.64
43480;BME280;29067;35.492;-97.520;2023-04-19T12:08:42;96309.84;;;13.79;83.55
43480;BME280;29067;35.492;-97.520;2023-04-19T12:11:10;96314.26;;;14.07;83.54
43480;BME280;29067;35.492;-97.520;2023-04-19T12:13:39;96318.62;;;14.35;82.35
43480;BME280;29067;35.492;-97.520;2023-04-19T12:16:07;96315.59;;;14.84;80.70
43480;BME280;29067;35.492;-97.520;2023-04-19T12:18:45;96310.35;;;14.48;81.01
43480;BME280;29067;35.492;-97.520;2023-04-19T12:21:24;96318.70;;;14.29;82.23
43480;BME280;29067;35.492;-97.520;2023-04-19T12:23:55;96314.57;;;13.85;86.32
43480;BME280;29067;35.492;-97.520;2023-04-19T12:26:23;96315.22;;;14.22;86.52
43480;BME280;29067;35.492;-97.520;2023-04-19T12:28:53;96328.58;;;14.97;83.37
43480;BME280;29067;35.492;-97.520;2023-04-19T12:31:21;96323.05;;;14.02;87.24
43480;BME280;29067;35.492;-97.520;2023-04-19T12:33:50;96329.54;;;15.06;84.37
43480;BME280;29067;35.492;-97.520;2023-04-19T12:36:18;96318.11;;;15.10;82.22
43480;BME280;29067;35.492;-97.520;2023-04-19T12:38:47;96333.90;;;14.26;85.02
43480;BME280;29067;35.492;-97.520;2023-04-19T12:41:15;96337.49;;;14.48;80.49
43480;BME280;29067;35.492;-97.520;2023-04-19T12:43:43;96340.49;;;14.13;81.38
43480;BME280;29067;35.492;-97.520;2023-04-19T12:46:11;96338.35;;;15.18;77.96
43480;BME280;29067;35.492;-97.520;2023-04-19T12:48:39;96349.15;;;15.23;77.24
43480;BME280;29067;35.492;-97.520;2023-04-19T12:51:06;96356.91;;;15.02;77.81